Wilmington, Illinois
Current Conditions -  °F | °C
As of 10:15 PM on Monday 22 Dec 2014 (Local Time) from KJOT Reporting Station
Haze Haze  
Wind Chill: 35°   Ceiling: 700
Heat Index: 41°   Visibility: 3mi
Dew Point: 40°   Wind: 12mph
Humidity: 95%   Direction: 120°ESE
Pressure: 29.59"   Gusts: NA
Location:  41.31°N, 88.15°W
Report Text: KJOT 230415Z AUTO 12010KT 3SM BR OVC007 05/04 A2959 RMK AO2 T00520044
Loading
Personal Weather Stations






























Interactive Weather Map New forecast layout! Learn more

10-Day Weather Forecast

Advertisements
Track Severe Weather on mobile